Time;durP1;ratioP1;P1;durP2;ratioP2;P2;SDS_P1;SDS_P2;PMS_P1;PMS_P2;Temp;Humidity;BMP_temperature;BMP_pressure;BME280_temperature;BME280_humidity;BME280_pressure;Samples;Min_cycle;Max_cycle;Signal;HPM_P1;HPM_P2
2022/10/01 00:01:04;;;;;;;;;33.60;27.00;;;;;16.95;64.94;98585.09;6180511;28;96427;-67
2022/10/01 00:04:08;;;;;;;;;27.20;25.20;;;;;16.83;65.01;98566.28;6158842;28;96925;-68
2022/10/01 00:07:13;;;;;;;;;30.60;25.60;;;;;16.98;64.87;98589.97;6177469;28;97471;-67
2022/10/01 00:10:17;;;;;;;;;31.40;27.60;;;;;16.99;64.90;98581.56;6160902;28;97308;-67
2022/10/01 00:13:21;;;;;;;;;32.80;29.00;;;;;17.01;64.53;98578.53;6175553;28;97027;-67
2022/10/01 00:16:27;;;;;;;;;32.60;28.60;;;;;16.99;64.48;98586.19;6163673;28;96420;-68
2022/10/01 00:19:31;;;;;;;;;31.60;27.00;;;;;16.97;64.54;98570.09;6163258;28;96509;-68
2022/10/01 00:22:35;;;;;;;;;32.00;28.00;;;;;16.99;64.64;98575.28;6161505;28;96815;-68
2022/10/01 00:25:39;;;;;;;;;30.40;26.00;;;;;16.97;64.55;98566.56;6164826;28;96247;-67
2022/10/01 00:28:44;;;;;;;;;34.20;29.60;;;;;16.93;64.49;98571.72;6134931;28;96648;-67
2022/10/01 00:31:49;;;;;;;;;32.00;27.60;;;;;16.90;64.41;98575.00;6136424;28;98056;-67
2022/10/01 00:34:53;;;;;;;;;32.40;27.20;;;;;16.92;64.43;98569.28;6145752;28;96746;-67
2022/10/01 00:37:57;;;;;;;;;30.80;26.00;;;;;16.89;64.45;98557.84;6162554;28;96962;-68
2022/10/01 00:41:00;;;;;;;;;27.20;25.20;;;;;16.87;64.58;98559.19;6163711;28;96692;-68
2022/10/01 00:44:28;;;;;;;;;29.00;25.60;;;;;16.90;64.20;98555.94;6146731;28;96421;-68
2022/10/01 00:47:38;;;;;;;;;25.00;22.40;;;;;16.92;64.15;98552.94;6163532;28;96286;-68
2022/10/01 00:50:43;;;;;;;;;28.75;25.00;;;;;16.86;64.21;98561.09;6163729;28;97033;-68
2022/10/01 00:53:47;;;;;;;;;27.40;24.00;;;;;16.92;64.16;98558.38;6162108;28;97028;-68
2022/10/01 00:56:52;;;;;;;;;27.60;25.20;;;;;16.96;64.07;98557.56;6163449;28;97071;-67
2022/10/01 01:00:01;;;;;;;;;27.80;25.40;;;;;16.96;63.89;98559.50;6163279;28;96388;-69
2022/10/01 01:03:06;;;;;;;;;26.60;24.60;;;;;16.97;64.04;98553.75;6159645;28;96945;-68
2022/10/01 01:06:10;;;;;;;;;26.40;23.40;;;;;16.97;64.15;98548.31;6147545;28;96454;-69
2022/10/01 01:09:14;;;;;;;;;24.60;21.00;;;;;16.97;64.10;98544.78;6162268;28;96814;-69
2022/10/01 01:12:33;;;;;;;;;26.80;23.00;;;;;16.98;63.94;98540.97;6162630;28;96420;-69
2022/10/01 01:15:42;;;;;;;;;28.00;23.00;;;;;16.97;64.09;98551.03;6145765;28;96251;-67
2022/10/01 01:18:57;;;;;;;;;27.00;23.00;;;;;16.92;64.32;98545.59;6151766;28;96416;-66
2022/10/01 01:22:05;;;;;;;;;25.00;23.60;;;;;16.94;64.16;98557.03;6149807;28;96523;-67
2022/10/01 01:25:16;;;;;;;;;22.25;21.25;;;;;16.86;64.30;98554.81;6159558;28;96974;-67
2022/10/01 01:28:30;;;;;;;;;23.00;20.00;;;;;16.86;63.98;98569.25;6160972;28;96881;-69
2022/10/01 01:31:39;;;;;;;;;27.20;22.20;;;;;16.82;63.92;98561.91;6142917;28;96510;-67
2022/10/01 01:34:45;;;;;;;;;23.50;21.50;;;;;16.82;64.14;98560.00;6160483;28;96720;-67
2022/10/01 01:37:54;;;;;;;;;23.00;22.00;;;;;16.81;64.05;98565.75;6161622;28;96614;-67
2022/10/01 01:41:01;;;;;;;;;24.60;22.00;;;;;16.83;64.47;98577.97;6168754;28;96244;-67
2022/10/01 01:44:11;;;;;;;;;24.00;20.00;;;;;16.83;64.21;98569.81;6164721;28;97705;-67
2022/10/01 01:47:15;;;;;;;;;24.60;21.20;;;;;16.83;64.41;98577.97;6161424;28;96353;-67
2022/10/01 01:50:19;;;;;;;;;22.40;21.40;;;;;16.87;64.66;98570.09;6161995;28;96455;-67
2022/10/01 01:53:23;;;;;;;;;20.75;20.25;;;;;16.86;64.72;98566.53;6142104;28;96712;-67
2022/10/01 01:56:26;;;;;;;;;23.60;21.00;;;;;16.91;64.81;98575.81;6161353;28;96914;-67
2022/10/01 01:59:32;;;;;;;;;22.00;20.00;;;;;16.94;64.43;98584.25;6161121;28;96384;-67
2022/10/01 02:02:38;;;;;;;;;21.60;20.00;;;;;16.94;64.43;98576.09;6162073;28;96295;-67
2022/10/01 02:05:47;;;;;;;;;23.00;21.00;;;;;16.93;64.38;98585.34;6163584;28;97540;-67
2022/10/01 02:09:01;;;;;;;;;21.60;19.00;;;;;16.92;64.48;98567.38;6161884;28;97073;-67
2022/10/01 02:12:19;;;;;;;;;19.60;16.60;;;;;17.01;64.17;98573.09;6162711;28;96287;-66
2022/10/01 02:15:28;;;;;;;;;21.00;20.00;;;;;17.01;64.17;98563.00;6141555;28;97287;-67
2022/10/01 02:18:38;;;;;;;;;21.75;20.00;;;;;17.01;64.21;98567.66;6156789;28;96735;-67
2022/10/01 02:21:52;;;;;;;;;18.00;18.00;;;;;17.00;64.03;98560.59;6161682;28;97564;-67
2022/10/01 02:24:58;;;;;;;;;20.60;19.00;;;;;17.01;64.05;98568.47;6162460;28;96814;-66
2022/10/01 02:28:07;;;;;;;;;18.00;16.00;;;;;17.01;63.78;98568.47;6132298;28;96763;-66
2022/10/01 02:31:15;;;;;;;;;21.00;19.40;;;;;17.01;63.89;98573.91;6163020;28;97585;-68
2022/10/01 02:34:21;;;;;;;;;18.25;17.00;;;;;17.01;63.68;98583.97;6166503;28;96440;-66
2022/10/01 02:37:27;;;;;;;;;21.60;20.60;;;;;17.01;63.79;98597.59;6144777;28;96268;-66
2022/10/01 02:40:35;;;;;;;;;18.20;16.20;;;;;16.99;63.59;98587.00;6163114;28;96634;-67
2022/10/01 02:43:45;;;;;;;;;19.20;18.20;;;;;16.97;63.68;98583.72;6165535;28;96372;-67
2022/10/01 02:46:56;;;;;;;;;19.00;17.60;;;;;16.98;63.93;98585.34;6163933;28;97025;-67
2022/10/01 02:50:01;;;;;;;;;22.00;20.00;;;;;17.00;63.83;98587.81;6162795;28;96477;-66
2022/10/01 02:53:09;;;;;;;;;19.00;17.00;;;;;17.00;63.94;98594.09;6130984;28;96688;-67
2022/10/01 02:57:21;;;;;;;;;23.00;20.00;;;;;16.97;63.81;98591.88;6165427;28;96859;-67
2022/10/01 02:59:37;;;;;;;;;20.00;18.25;;;;;16.97;64.07;98599.22;6164626;28;96926;-67
2022/10/01 03:02:42;;;;;;;;;24.67;21.33;;;;;16.97;64.20;98602.78;6165003;28;96589;-66
2022/10/01 03:05:46;;;;;;;;;20.00;18.00;;;;;16.97;64.25;98602.78;6165070;28;96306;-67
2022/10/01 03:08:49;;;;;;;;;24.25;20.50;;;;;16.99;63.89;98606.06;6163216;28;97124;-66
2022/10/01 03:11:53;;;;;;;;;21.40;18.00;;;;;17.00;63.81;98610.44;6166219;28;97903;-67
2022/10/01 03:14:58;;;;;;;;;22.20;20.00;;;;;16.96;64.11;98603.84;6171031;28;96588;-66
2022/10/01 03:18:03;;;;;;;;;25.60;23.60;;;;;16.95;63.94;98596.81;6180062;28;96989;-67
2022/10/01 03:21:07;;;;;;;;;20.75;18.75;;;;;16.93;64.11;98598.16;6171213;28;96652;-67
2022/10/01 03:24:11;;;;;;;;;22.00;18.00;;;;;16.89;63.87;98593.25;6181662;28;96488;-67
2022/10/01 03:27:14;;;;;;;;;24.25;21.00;;;;;16.86;63.73;98596.50;6163642;28;96495;-67
2022/10/01 03:30:18;;;;;;;;;22.40;21.00;;;;;16.79;64.04;98590.50;6164065;28;96463;-67
2022/10/01 03:33:22;;;;;;;;;24.50;22.25;;;;;16.84;64.00;98600.59;6163437;28;96504;-67
2022/10/01 03:36:26;;;;;;;;;24.80;22.00;;;;;16.73;64.13;98588.84;6162619;28;96904;-66
2022/10/01 03:39:30;;;;;;;;;28.00;25.60;;;;;16.82;64.01;98598.13;6162112;28;96924;-67
2022/10/01 03:42:34;;;;;;;;;22.00;21.00;;;;;16.83;63.82;98593.50;6160833;28;96984;-67
2022/10/01 03:45:38;;;;;;;;;22.00;20.00;;;;;16.83;63.86;98599.75;6162616;28;97584;-67
2022/10/01 03:48:43;;;;;;;;;22.60;20.60;;;;;16.84;63.93;98595.13;6161032;28;97383;-66
2022/10/01 03:51:46;;;;;;;;;23.20;21.60;;;;;16.87;64.23;98602.75;6161610;28;97100;-67
2022/10/01 03:54:49;;;;;;;;;22.00;21.40;;;;;16.90;64.23;98599.50;6161377;28;96560;-66
2022/10/01 03:57:53;;;;;;;;;26.00;22.00;;;;;16.92;64.32;98596.50;6143716;28;97041;-67
2022/10/01 04:00:57;;;;;;;;;26.00;23.00;;;;;16.94;64.40;98578.00;6140673;28;98567;-66
2022/10/01 04:04:02;;;;;;;;;26.25;22.25;;;;;16.98;64.33;98590.81;6145977;28;100378;-67
2022/10/01 04:07:06;;;;;;;;;26.00;24.00;;;;;16.94;64.12;98583.44;6146257;28;97033;-67
2022/10/01 04:10:09;;;;;;;;;28.20;26.40;;;;;16.76;64.27;98554.84;6162662;28;96238;-67
2022/10/01 04:13:13;;;;;;;;;27.50;24.00;;;;;16.91;64.20;98571.16;6166660;28;97011;-67
2022/10/01 04:16:16;;;;;;;;;26.25;24.25;;;;;16.87;64.16;98567.34;6163181;28;97231;-66
2022/10/01 04:19:21;;;;;;;;;24.00;22.00;;;;;16.81;64.13;98568.47;6162958;28;96412;-66
2022/10/01 04:22:24;;;;;;;;;24.60;21.40;;;;;16.72;64.31;98568.16;6162899;28;96190;-67
2022/10/01 04:25:29;;;;;;;;;22.00;20.00;;;;;16.68;64.39;98566.25;6161018;28;96429;-67
2022/10/01 04:28:32;;;;;;;;;28.20;25.60;;;;;16.63;64.47;98556.16;6162410;28;96537;-67
2022/10/01 04:31:35;;;;;;;;;25.40;24.40;;;;;16.61;64.76;98561.06;6163435;28;96362;-67
2022/10/01 04:34:53;;;;;;;;;28.40;24.00;;;;;16.63;64.69;98567.03;6160834;28;96521;-66
2022/10/01 04:37:58;;;;;;;;;28.60;25.60;;;;;16.64;64.72;98576.84;6143184;28;96369;-67
2022/10/01 04:41:01;;;;;;;;;26.80;24.40;;;;;16.63;64.89;98572.50;6159727;28;96581;-66
2022/10/01 04:44:05;;;;;;;;;26.25;25.00;;;;;16.66;65.10;98576.59;6161712;28;96806;-66
2022/10/01 04:47:09;;;;;;;;;27.60;25.20;;;;;16.72;65.08;98575.50;6156529;28;96427;-66
2022/10/01 04:50:14;;;;;;;;;27.50;24.75;;;;;16.77;65.06;98572.78;6168013;28;96236;-67
2022/10/01 04:53:21;;;;;;;;;23.60;22.60;;;;;16.83;65.05;98571.72;6138779;28;96363;-67
2022/10/01 04:56:24;;;;;;;;;27.60;23.40;;;;;16.85;64.97;98570.38;6161539;28;96720;-66
2022/10/01 04:59:28;;;;;;;;;28.50;26.00;;;;;16.88;64.83;98569.81;6142817;28;96372;-67
2022/10/01 05:02:33;;;;;;;;;28.00;24.80;;;;;16.94;64.50;98573.38;6161504;28;96500;-66
2022/10/01 05:05:38;;;;;;;;;25.80;24.00;;;;;16.96;64.41;98575.84;6162889;28;96581;-67
2022/10/01 05:08:41;;;;;;;;;26.40;25.00;;;;;16.98;64.44;98574.47;6160075;28;96675;-66
2022/10/01 05:11:44;;;;;;;;;27.00;24.40;;;;;17.02;64.13;98572.81;6161793;28;96451;-66
2022/10/01 05:14:48;;;;;;;;;27.00;23.33;;;;;17.05;64.55;98572.31;6160249;28;96459;-67
2022/10/01 05:17:51;;;;;;;;;32.20;28.00;;;;;17.09;64.38;98583.47;6157831;28;97181;-66
2022/10/01 05:20:56;;;;;;;;;26.00;24.00;;;;;17.10;64.07;98579.66;6158027;28;96347;-68
2022/10/01 05:24:00;;;;;;;;;33.00;29.60;;;;;17.08;63.62;98574.47;6162522;28;96258;-66
2022/10/01 05:27:03;;;;;;;;;35.40;27.00;;;;;17.11;63.91;98579.38;6160455;28;96619;-67
2022/10/01 05:30:09;;;;;;;;;28.00;24.75;;;;;17.17;63.79;98566.56;6161676;28;97194;-66
2022/10/01 05:33:13;;;;;;;;;30.80;28.20;;;;;17.23;63.78;98579.94;6159583;28;96869;-67
2022/10/01 05:36:18;;;;;;;;;27.00;22.00;;;;;17.24;63.63;98578.84;6160515;28;96954;-66
2022/10/01 05:39:21;;;;;;;;;31.80;28.20;;;;;17.18;63.48;98562.75;6143875;28;97221;-66
2022/10/01 05:42:24;;;;;;;;;28.00;27.00;;;;;17.18;63.29;98568.22;6161551;28;96410;-66
2022/10/01 05:45:28;;;;;;;;;32.40;30.00;;;;;17.26;63.67;98578.56;6162203;28;96883;-67
2022/10/01 05:48:35;;;;;;;;;31.80;29.40;;;;;17.24;63.46;98570.69;6161824;28;96349;-66
2022/10/01 05:51:40;;;;;;;;;31.00;27.00;;;;;17.28;63.54;98577.22;6162050;28;97055;-66
2022/10/01 05:54:43;;;;;;;;;32.20;28.80;;;;;17.34;63.59;98588.94;6154709;28;96473;-67
2022/10/01 05:57:54;;;;;;;;;33.00;30.00;;;;;17.36;63.73;98589.47;6161801;28;97107;-68
2022/10/01 06:00:57;;;;;;;;;36.60;30.20;;;;;17.39;63.60;98585.38;6164577;28;97333;-67
2022/10/01 06:04:01;;;;;;;;;36.60;31.00;;;;;17.41;63.52;98584.00;6162468;28;96338;-67
2022/10/01 06:07:06;;;;;;;;;33.25;28.25;;;;;17.44;63.42;98577.22;6144637;28;96486;-67
2022/10/01 06:10:10;;;;;;;;;32.00;27.00;;;;;17.49;63.29;98579.94;6161699;28;98535;-69
2022/10/01 06:13:16;;;;;;;;;31.60;29.80;;;;;17.53;63.11;98584.56;6161983;28;96313;-71
2022/10/01 06:16:20;;;;;;;;;33.00;30.00;;;;;17.51;62.79;98575.81;6161479;28;96441;-66
2022/10/01 06:19:23;;;;;;;;;34.60;29.00;;;;;17.55;63.05;98576.91;6157846;28;97035;-66
2022/10/01 06:22:28;;;;;;;;;38.00;31.40;;;;;17.38;63.29;98578.28;6164483;28;96734;-65
2022/10/01 06:25:31;;;;;;;;;35.80;31.40;;;;;17.31;63.29;98579.38;6165634;28;96949;-65
2022/10/01 06:28:35;;;;;;;;;35.60;31.60;;;;;17.38;63.37;98570.94;6171722;28;96584;-65
2022/10/01 06:31:38;;;;;;;;;33.40;30.00;;;;;17.48;63.12;98561.94;6178446;28;96387;-65
2022/10/01 06:34:42;;;;;;;;;34.00;31.00;;;;;17.61;62.82;98567.66;6162723;28;97117;-68
2022/10/01 06:37:47;;;;;;;;;30.60;28.60;;;;;17.60;62.33;98562.50;6162968;28;96345;-71
2022/10/01 06:40:52;;;;;;;;;34.00;30.00;;;;;17.64;62.32;98553.47;6171081;28;96620;-70
2022/10/01 06:43:55;;;;;;;;;40.00;33.00;;;;;17.63;62.56;98559.22;6147912;28;96617;-70
2022/10/01 06:46:59;;;;;;;;;29.40;25.80;;;;;17.59;62.63;98567.13;6148479;28;99221;-70
2022/10/01 06:50:02;;;;;;;;;34.60;29.80;;;;;17.62;62.16;98571.22;6161197;28;96973;-70
2022/10/01 06:53:07;;;;;;;;;35.40;29.60;;;;;17.60;62.75;98557.84;6160371;28;96281;-70
2022/10/01 06:56:11;;;;;;;;;30.50;29.50;;;;;17.72;62.62;98560.31;6161060;28;96505;-70
2022/10/01 06:59:14;;;;;;;;;32.60;27.40;;;;;17.77;62.21;98549.38;6161135;28;96453;-68
2022/10/01 07:02:27;;;;;;;;;31.00;26.60;;;;;17.93;63.12;98555.63;6163743;28;96379;-71
2022/10/01 07:05:31;;;;;;;;;32.60;29.60;;;;;18.05;62.39;98554.19;6165517;28;96877;-73
2022/10/01 07:08:35;;;;;;;;;30.00;29.00;;;;;18.09;62.15;98549.81;6160044;28;96773;-70
2022/10/01 07:11:40;;;;;;;;;31.50;27.50;;;;;18.03;62.10;98531.81;6141756;28;96455;-70
2022/10/01 07:14:43;;;;;;;;;33.80;28.00;;;;;18.27;62.73;98537.50;6165233;28;96314;-71
2022/10/01 07:17:48;;;;;;;;;33.50;29.00;;;;;18.27;61.62;98544.84;6162315;28;96366;-71
2022/10/01 07:20:52;;;;;;;;;29.25;26.25;;;;;18.40;62.61;98549.69;6164008;28;96584;-71
2022/10/01 07:23:56;;;;;;;;;26.60;23.60;;;;;18.45;61.95;98531.38;6162952;28;96864;-71
2022/10/01 07:27:00;;;;;;;;;27.60;25.00;;;;;18.39;62.14;98534.41;6145590;28;96907;-71
2022/10/01 07:30:10;;;;;;;;;27.00;23.50;;;;;18.35;62.45;98522.44;6165502;28;96280;-72
2022/10/01 07:33:14;;;;;;;;;30.40;25.20;;;;;18.18;62.31;98526.31;6145475;28;96685;-72
2022/10/01 07:36:17;;;;;;;;;26.50;23.00;;;;;18.26;62.76;98527.66;6159546;28;96364;-72
2022/10/01 07:39:22;;;;;;;;;31.00;26.00;;;;;18.42;62.51;98525.69;6163673;28;96335;-71
2022/10/01 07:42:26;;;;;;;;;28.00;26.00;;;;;18.54;61.55;98524.25;6163448;28;96353;-69
2022/10/01 07:45:29;;;;;;;;;28.00;25.67;;;;;18.63;62.08;98518.19;6162447;28;97921;-71
2022/10/01 07:48:33;;;;;;;;;27.00;25.00;;;;;18.67;61.63;98517.34;6140577;28;96251;-71
2022/10/01 07:51:36;;;;;;;;;34.40;24.00;;;;;18.75;61.02;98515.94;6156871;28;96989;-73
2022/10/01 07:54:41;;;;;;;;;26.50;23.00;;;;;18.76;61.15;98523.06;6145887;28;97972;-70
2022/10/01 07:57:51;;;;;;;;;28.00;22.50;;;;;18.73;60.63;98515.41;6164017;28;96923;-70
2022/10/01 08:00:57;;;;;;;;;28.00;22.25;;;;;18.63;60.44;98520.94;6144896;28;96706;-71
2022/10/01 08:05:16;;;;;;;;;25.75;21.00;;;;;18.66;59.84;98518.47;6164522;28;96269;-71
2022/10/01 08:07:24;;;;;;;;;23.40;21.00;;;;;18.63;60.18;98524.47;6163157;28;96283;-70
2022/10/01 08:10:29;;;;;;;;;22.00;18.00;;;;;18.47;61.01;98499.16;6164037;28;97076;-70
2022/10/01 08:13:33;;;;;;;;;22.00;20.60;;;;;18.58;61.13;98511.69;6163111;28;96092;-71
2022/10/01 08:16:38;;;;;;;;;24.00;22.00;;;;;18.48;61.64;98519.06;6161449;28;96352;-71
2022/10/01 08:19:41;;;;;;;;;23.50;22.00;;;;;18.67;61.96;98506.41;6157272;28;96368;-70
2022/10/01 08:22:45;;;;;;;;;27.00;22.00;;;;;18.85;61.56;98492.13;6162683;28;96549;-72
2022/10/01 08:25:50;;;;;;;;;22.00;21.50;;;;;19.13;61.38;98508.81;6163704;28;96329;-70
2022/10/01 08:28:53;;;;;;;;;21.00;19.00;;;;;19.25;60.52;98504.63;6146317;28;96623;-72
2022/10/01 08:31:57;;;;;;;;;24.00;22.00;;;;;19.33;60.21;98497.72;6147189;28;96675;-69
2022/10/01 08:35:00;;;;;;;;;21.00;18.00;;;;;19.45;59.64;98511.81;6146657;28;96732;-70
2022/10/01 08:38:05;;;;;;;;;20.00;18.50;;;;;19.52;59.19;98501.38;6159433;28;96319;-71
2022/10/01 08:41:23;;;;;;;;;19.00;16.00;;;;;19.58;58.82;98499.41;6162280;28;96273;-71
2022/10/01 08:44:32;;;;;;;;;17.00;14.00;;;;;19.65;58.82;98487.00;6162723;28;96268;-71
2022/10/01 08:47:41;;;;;;;;;18.00;16.00;;;;;19.71;58.30;98494.06;6153600;28;97172;-70
2022/10/01 08:50:51;;;;;;;;;21.00;21.00;;;;;19.75;58.25;98486.91;6126899;28;96426;-70
2022/10/01 08:54:03;;;;;;;;;29.00;26.60;;;;;19.81;59.20;98473.97;6160815;28;96561;-70
2022/10/01 08:57:13;;;;;;;;;27.80;25.20;;;;;19.86;59.15;98474.75;6164527;28;97529;-69
2022/10/01 09:00:18;;;;;;;;;30.60;28.00;;;;;19.92;59.53;98475.50;6163482;28;97734;-68
2022/10/01 09:03:23;;;;;;;;;33.75;30.00;;;;;19.97;59.08;98471.88;6187858;28;96416;-69
2022/10/01 09:06:27;;;;;;;;;32.20;27.00;;;;;20.06;58.92;98467.38;6177912;28;96593;-68
2022/10/01 09:09:44;;;;;;;;;31.00;28.00;;;;;20.15;58.39;98469.19;6180284;28;96287;-69
2022/10/01 09:13:05;;;;;;;;;30.00;24.40;;;;;20.25;58.50;98454.53;6185090;28;96836;-69
2022/10/01 09:16:18;;;;;;;;;27.60;25.60;;;;;20.37;58.12;98462.34;6156426;28;96730;-69
2022/10/01 09:19:40;;;;;;;;;34.75;29.50;;;;;20.39;57.62;98463.66;6156450;28;96159;-70
2022/10/01 09:23:01;;;;;;;;;30.25;27.25;;;;;20.48;57.64;98453.69;6158233;28;96893;-69
2022/10/01 09:26:12;;;;;;;;;30.40;28.40;;;;;20.49;57.82;98460.78;6161151;28;97963;-69
2022/10/01 09:29:26;;;;;;;;;26.00;24.60;;;;;20.54;57.08;98454.41;6144723;28;97705;-68
2022/10/01 09:32:33;;;;;;;;;33.00;28.25;;;;;20.55;57.65;98454.13;6176484;28;96715;-69
2022/10/01 09:35:43;;;;;;;;;31.40;29.40;;;;;20.50;57.74;98453.38;6165273;28;96657;-70
2022/10/01 09:38:53;;;;;;;;;29.40;27.00;;;;;20.51;56.88;98450.38;6164729;28;97021;-68
2022/10/01 09:41:58;;;;;;;;;27.40;23.00;;;;;20.50;57.07;98447.91;6152325;28;96668;-68
2022/10/01 09:45:04;;;;;;;;;28.00;25.20;;;;;20.53;56.68;98445.38;6173201;28;97728;-70
2022/10/01 09:48:19;;;;;;;;;26.00;24.50;;;;;20.61;56.97;98433.78;6177660;28;96668;-68
2022/10/01 09:51:30;;;;;;;;;28.60;24.40;;;;;20.69;57.19;98435.00;6180133;28;96308;-69
2022/10/01 09:54:44;;;;;;;;;29.50;25.75;;;;;20.80;57.34;98436.50;6165392;28;96733;-69
2022/10/01 09:57:53;;;;;;;;;29.80;23.60;;;;;20.83;55.55;98438.63;6151371;28;96900;-69
2022/10/01 10:00:59;;;;;;;;;24.00;22.00;;;;;20.78;55.78;98438.69;6186590;28;96939;-69
2022/10/01 10:04:03;;;;;;;;;24.00;21.00;;;;;20.72;56.22;98434.44;6187413;28;96584;-69
2022/10/01 10:07:06;;;;;;;;;25.00;21.20;;;;;20.51;55.99;98428.47;6171365;28;96475;-69
2022/10/01 10:10:17;;;;;;;;;32.80;26.80;;;;;20.45;56.61;98437.84;6182258;28;96778;-69
2022/10/01 10:13:33;;;;;;;;;25.20;23.00;;;;;20.42;57.60;98432.97;6179377;28;97779;-70
2022/10/01 10:16:46;;;;;;;;;19.20;18.20;;;;;20.48;57.34;98426.28;6158060;28;98522;-69
2022/10/01 10:19:51;;;;;;;;;23.60;20.60;;;;;20.50;57.67;98429.56;6155760;28;96570;-71
2022/10/01 10:23:05;;;;;;;;;20.60;19.60;;;;;20.51;57.53;98420.25;6159990;28;96847;-68
2022/10/01 10:26:19;;;;;;;;;20.00;18.00;;;;;20.55;57.23;98410.31;6142850;28;96953;-68
2022/10/01 10:29:29;;;;;;;;;24.40;21.40;;;;;20.57;56.40;98415.50;6103285;28;98417;-69
2022/10/01 10:32:35;;;;;;;;;24.00;22.60;;;;;20.53;56.77;98406.22;6121024;28;96871;-69
2022/10/01 10:35:38;;;;;;;;;23.40;21.00;;;;;20.48;56.60;98401.66;6142964;28;96659;-69
2022/10/01 10:38:46;;;;;;;;;25.00;22.25;;;;;20.50;56.25;98393.97;6159806;28;96345;-68
2022/10/01 10:41:52;;;;;;;;;20.40;18.00;;;;;20.52;56.33;98393.69;6143871;28;96706;-68
2022/10/01 10:45:01;;;;;;;;;26.40;22.00;;;;;20.55;56.53;98399.38;6161684;28;96551;-69
2022/10/01 10:48:12;;;;;;;;;23.20;20.80;;;;;20.60;57.00;98377.38;6143011;28;97099;-68
2022/10/01 10:51:17;;;;;;;;;21.80;21.00;;;;;20.62;56.87;98375.13;6162130;28;96868;-69
2022/10/01 10:54:28;;;;;;;;;25.50;22.25;;;;;20.67;56.97;98374.25;6143386;28;96972;-69
2022/10/01 10:57:33;;;;;;;;;25.00;20.50;;;;;20.63;56.51;98367.72;6161875;28;96972;-70
2022/10/01 11:00:44;;;;;;;;;25.00;21.40;;;;;20.58;56.59;98363.16;6142396;28;96513;-69
2022/10/01 11:03:54;;;;;;;;;27.40;24.40;;;;;20.59;56.77;98353.81;6161468;28;96609;-69
2022/10/01 11:07:00;;;;;;;;;25.40;23.40;;;;;20.63;57.11;98338.41;6162194;28;96409;-69
2022/10/01 11:10:20;;;;;;;;;24.50;21.50;;;;;20.68;56.91;98326.56;6137328;28;97961;-68
2022/10/01 11:13:50;;;;;;;;;23.00;22.00;;;;;20.65;57.30;98319.78;6165388;28;96859;-68
2022/10/01 11:17:12;;;;;;;;;21.00;19.00;;;;;20.71;57.22;98315.84;6141336;28;96594;-69
2022/10/01 11:20:34;;;;;;;;;22.20;21.20;;;;;20.81;57.00;98316.75;6141310;28;96459;-69
2022/10/01 11:24:07;;;;;;;;;25.40;22.60;;;;;20.89;56.81;98308.66;6145545;28;96622;-69
2022/10/01 11:27:23;;;;;;;;;26.80;23.40;;;;;20.85;56.68;98302.16;6164649;28;96879;-68
2022/10/01 11:30:35;;;;;;;;;26.00;22.60;;;;;20.86;57.30;98298.31;6147105;28;97128;-68
2022/10/01 11:33:51;;;;;;;;;25.00;23.20;;;;;20.86;56.76;98295.56;6161900;28;96403;-68
2022/10/01 11:37:05;;;;;;;;;22.20;20.20;;;;;20.85;56.91;98295.84;6161966;28;96271;-70
2022/10/01 11:40:17;;;;;;;;;23.25;21.25;;;;;20.63;56.93;98280.09;6146537;28;96334;-70
2022/10/01 11:43:27;;;;;;;;;23.25;21.00;;;;;20.60;57.32;98284.25;6146816;28;98611;-67
2022/10/01 11:46:53;;;;;;;;;27.40;22.40;;;;;20.62;57.99;98276.53;6164985;28;96470;-68
2022/10/01 11:50:01;;;;;;;;;26.67;24.67;;;;;20.65;58.39;98253.22;6144740;28;97093;-68
2022/10/01 11:53:11;;;;;;;;;25.25;23.00;;;;;20.86;57.83;98262.69;6162233;28;96373;-69
2022/10/01 11:59:48;;;;;;;;;24.50;22.25;;;;;21.22;57.73;98262.78;6164767;28;96771;-70
2022/10/01 12:02:58;;;;;;;;;24.00;22.00;;;;;21.23;57.03;98258.13;6147070;28;97300;-70
2022/10/01 12:06:08;;;;;;;;;24.80;23.40;;;;;21.31;57.45;98255.47;6163850;28;96495;-70
2022/10/01 12:09:24;;;;;;;;;24.00;22.50;;;;;21.43;57.92;98244.81;6164450;28;97019;-68
2022/10/01 12:12:35;;;;;;;;;26.40;23.00;;;;;21.54;56.81;98245.41;6164522;28;96640;-70
2022/10/01 12:15:44;;;;;;;;;23.50;22.50;;;;;21.62;56.68;98222.72;6164247;28;96384;-69
2022/10/01 12:18:54;;;;;;;;;23.00;20.60;;;;;21.79;56.06;98238.50;6163673;28;96358;-70
2022/10/01 12:22:04;;;;;;;;;21.60;20.60;;;;;21.71;55.56;98228.25;6163101;28;96321;-70
2022/10/01 12:25:13;;;;;;;;;23.60;21.00;;;;;21.68;56.51;98228.91;6163730;28;97610;-69
2022/10/01 12:28:21;;;;;;;;;22.00;20.00;;;;;21.58;56.16;98221.72;6144131;28;97555;-69
2022/10/01 12:31:33;;;;;;;;;23.00;21.00;;;;;21.46;56.33;98215.94;6153324;28;97020;-70
2022/10/01 12:34:48;;;;;;;;;21.60;21.00;;;;;21.41;56.71;98216.88;6146463;28;96354;-70
2022/10/01 12:38:09;;;;;;;;;27.00;24.00;;;;;21.36;56.96;98208.75;6163095;28;97301;-69
2022/10/01 12:41:28;;;;;;;;;23.00;20.60;;;;;21.33;57.44;98211.31;6162562;28;96502;-68
2022/10/01 12:44:49;;;;;;;;;19.80;18.00;;;;;21.11;57.85;98195.59;6163736;28;96807;-68
2022/10/01 12:48:04;;;;;;;;;23.00;21.40;;;;;21.16;58.31;98195.47;6139960;28;96910;-70
2022/10/01 12:51:30;;;;;;;;;21.80;20.60;;;;;21.14;58.68;98190.34;6152019;28;96332;-68
2022/10/01 12:54:48;;;;;;;;;17.50;15.25;;;;;21.06;58.85;98193.75;6163167;28;96371;-68
2022/10/01 12:58:02;;;;;;;;;20.00;19.00;;;;;21.02;59.37;98186.44;6163933;28;96236;-69
2022/10/01 13:01:16;;;;;;;;;25.00;22.00;;;;;20.98;59.54;98177.22;6163839;28;96784;-70
2022/10/01 13:04:50;;;;;;;;;23.60;20.60;;;;;20.94;59.81;98181.69;6163911;28;96330;-70
2022/10/01 13:08:07;;;;;;;;;22.00;20.20;;;;;20.95;60.19;98175.91;6145018;28;97844;-70
2022/10/01 13:11:24;;;;;;;;;19.75;17.50;;;;;21.02;60.01;98165.34;6144985;28;96932;-70
2022/10/01 13:14:32;;;;;;;;;18.60;17.60;;;;;21.14;59.86;98146.47;6145045;28;97191;-70
2022/10/01 13:17:44;;;;;;;;;19.20;17.40;;;;;21.40;59.55;98159.63;6162997;28;96396;-70
2022/10/01 13:20:56;;;;;;;;;20.40;19.20;;;;;21.39;59.00;98152.50;6159668;28;96523;-70
2022/10/01 13:24:08;;;;;;;;;21.00;20.00;;;;;21.36;60.24;98159.41;6143089;28;96742;-69
2022/10/01 13:27:18;;;;;;;;;20.00;18.20;;;;;21.39;60.35;98155.25;6150826;28;96475;-68
2022/10/01 13:30:25;;;;;;;;;20.60;18.60;;;;;21.42;60.13;98149.13;6152488;28;96929;-70
2022/10/01 13:33:31;;;;;;;;;21.00;19.00;;;;;21.41;60.90;98150.25;6143542;28;97617;-69
2022/10/01 13:36:35;;;;;;;;;19.00;19.00;;;;;21.38;60.18;98153.63;6162239;28;96271;-71
2022/10/01 13:39:41;;;;;;;;;17.80;17.00;;;;;21.36;59.94;98148.44;6162328;28;96261;-69
2022/10/01 13:42:47;;;;;;;;;19.00;17.00;;;;;21.22;59.84;98141.38;6159729;28;97139;-69
2022/10/01 13:45:54;;;;;;;;;22.20;19.00;;;;;21.16;60.14;98138.75;6155590;28;96294;-68
2022/10/01 13:49:02;;;;;;;;;19.50;18.50;;;;;21.17;59.93;98145.03;6150241;28;96510;-71
2022/10/01 13:52:06;;;;;;;;;20.40;18.40;;;;;21.17;60.30;98132.13;6144725;28;96745;-70
2022/10/01 13:55:26;;;;;;;;;22.00;19.00;;;;;21.17;61.16;98134.06;6157343;28;97545;-71
2022/10/01 13:58:37;;;;;;;;;19.00;18.00;;;;;21.16;61.30;98126.97;6161858;28;96418;-68
2022/10/01 14:01:42;;;;;;;;;19.60;19.00;;;;;21.13;60.98;98122.06;6128537;28;97344;-69
2022/10/01 14:04:47;;;;;;;;;20.00;16.60;;;;;21.10;61.27;98122.69;6161448;28;96267;-68
2022/10/01 14:07:57;;;;;;;;;17.00;16.00;;;;;21.05;61.30;98117.34;6161303;28;96386;-69
2022/10/01 14:17:57;;;;;;;;;21.00;18.50;;;;;20.89;61.13;98114.13;6161895;28;96287;-70
2022/10/01 14:21:12;;;;;;;;;17.00;16.00;;;;;20.83;61.73;98109.03;6153772;28;96534;-68
2022/10/01 14:24:25;;;;;;;;;18.40;17.00;;;;;20.77;62.13;98100.13;6159514;28;96349;-67
2022/10/01 14:27:33;;;;;;;;;17.20;15.00;;;;;20.62;62.47;98095.00;6148830;28;96404;-69
2022/10/01 14:30:42;;;;;;;;;20.00;18.40;;;;;20.56;62.87;98094.28;6140911;28;96939;-69
2022/10/01 14:34:09;;;;;;;;;18.00;18.00;;;;;20.53;62.71;98092.13;6162577;28;96209;-69